sensor_id;sensor_type;location;lat;lon;timestamp;P1;durP1;ratioP1;P2;durP2;ratioP2
19495;SDS011;9888;48.606;9.630;2023-11-21T00:00:14;7.70;;;2.40;;
19495;SDS011;9888;48.606;9.630;2023-11-21T00:02:43;10.87;;;2.67;;
19495;SDS011;9888;48.606;9.630;2023-11-21T00:05:13;12.37;;;2.70;;
19495;SDS011;9888;48.606;9.630;2023-11-21T00:07:42;8.47;;;2.50;;
19495;SDS011;9888;48.606;9.630;2023-11-21T00:10:10;6.07;;;2.53;;
19495;SDS011;9888;48.606;9.630;2023-11-21T00:12:40;7.43;;;2.37;;
19495;SDS011;9888;48.606;9.630;2023-11-21T00:15:09;7.80;;;2.70;;
19495;SDS011;9888;48.606;9.630;2023-11-21T00:17:45;7.53;;;2.80;;
19495;SDS011;9888;48.606;9.630;2023-11-21T00:20:13;9.57;;;2.43;;
19495;SDS011;9888;48.606;9.630;2023-11-21T00:22:40;6.60;;;2.40;;
19495;SDS011;9888;48.606;9.630;2023-11-21T00:25:07;7.43;;;2.50;;
19495;SDS011;9888;48.606;9.630;2023-11-21T00:27:38;6.50;;;2.33;;
19495;SDS011;9888;48.606;9.630;2023-11-21T00:30:05;10.07;;;2.57;;
19495;SDS011;9888;48.606;9.630;2023-11-21T00:32:37;7.67;;;2.60;;
19495;SDS011;9888;48.606;9.630;2023-11-21T00:35:05;5.87;;;2.20;;
19495;SDS011;9888;48.606;9.630;2023-11-21T00:37:32;7.10;;;2.13;;
19495;SDS011;9888;48.606;9.630;2023-11-21T00:40:00;7.47;;;2.07;;
19495;SDS011;9888;48.606;9.630;2023-11-21T00:42:30;5.53;;;1.93;;
19495;SDS011;9888;48.606;9.630;2023-11-21T00:45:01;5.40;;;1.60;;
19495;SDS011;9888;48.606;9.630;2023-11-21T00:47:33;6.53;;;1.70;;
19495;SDS011;9888;48.606;9.630;2023-11-21T00:50:06;5.63;;;1.53;;
19495;SDS011;9888;48.606;9.630;2023-11-21T00:52:35;6.40;;;2.00;;
19495;SDS011;9888;48.606;9.630;2023-11-21T00:55:04;6.73;;;1.70;;
19495;SDS011;9888;48.606;9.630;2023-11-21T00:57:34;6.70;;;1.83;;
19495;SDS011;9888;48.606;9.630;2023-11-21T01:00:03;6.70;;;2.00;;
19495;SDS011;9888;48.606;9.630;2023-11-21T01:02:39;6.03;;;1.50;;
19495;SDS011;9888;48.606;9.630;2023-11-21T01:05:07;6.10;;;1.47;;
19495;SDS011;9888;48.606;9.630;2023-11-21T01:07:36;7.83;;;1.63;;
19495;SDS011;9888;48.606;9.630;2023-11-21T01:10:03;7.13;;;1.30;;
19495;SDS011;9888;48.606;9.630;2023-11-21T01:12:37;5.70;;;1.13;;
19495;SDS011;9888;48.606;9.630;2023-11-21T01:15:05;6.53;;;1.50;;
19495;SDS011;9888;48.606;9.630;2023-11-21T01:17:33;8.27;;;1.20;;
19495;SDS011;9888;48.606;9.630;2023-11-21T01:20:01;8.30;;;1.50;;
19495;SDS011;9888;48.606;9.630;2023-11-21T01:22:32;6.90;;;1.20;;
19495;SDS011;9888;48.606;9.630;2023-11-21T01:25:00;5.70;;;1.67;;
19495;SDS011;9888;48.606;9.630;2023-11-21T01:27:30;5.90;;;1.07;;
19495;SDS011;9888;48.606;9.630;2023-11-21T01:29:57;7.00;;;1.50;;
19495;SDS011;9888;48.606;9.630;2023-11-21T01:32:27;7.77;;;1.50;;
19495;SDS011;9888;48.606;9.630;2023-11-21T01:34:55;5.77;;;1.40;;
19495;SDS011;9888;48.606;9.630;2023-11-21T01:37:25;5.63;;;1.30;;
19495;SDS011;9888;48.606;9.630;2023-11-21T01:39:53;5.20;;;1.17;;
19495;SDS011;9888;48.606;9.630;2023-11-21T01:42:21;9.13;;;1.40;;
19495;SDS011;9888;48.606;9.630;2023-11-21T01:48:10;5.50;;;1.50;;
19495;SDS011;9888;48.606;9.630;2023-11-21T01:50:39;5.30;;;1.23;;
19495;SDS011;9888;48.606;9.630;2023-11-21T01:53:08;5.47;;;1.33;;
19495;SDS011;9888;48.606;9.630;2023-11-21T01:55:40;8.27;;;1.30;;
19495;SDS011;9888;48.606;9.630;2023-11-21T01:58:08;5.47;;;1.20;;
19495;SDS011;9888;48.606;9.630;2023-11-21T02:00:38;6.53;;;1.30;;
19495;SDS011;9888;48.606;9.630;2023-11-21T02:03:05;6.93;;;1.30;;
19495;SDS011;9888;48.606;9.630;2023-11-21T02:05:32;6.33;;;1.20;;
19495;SDS011;9888;48.606;9.630;2023-11-21T02:07:59;5.30;;;1.30;;
19495;SDS011;9888;48.606;9.630;2023-11-21T02:10:30;5.07;;;1.20;;
19495;SDS011;9888;48.606;9.630;2023-11-21T02:12:57;5.00;;;1.20;;
19495;SDS011;9888;48.606;9.630;2023-11-21T02:15:26;7.53;;;1.20;;
19495;SDS011;9888;48.606;9.630;2023-11-21T02:17:54;4.50;;;1.13;;
19495;SDS011;9888;48.606;9.630;2023-11-21T02:20:24;7.33;;;1.40;;
19495;SDS011;9888;48.606;9.630;2023-11-21T02:22:59;8.20;;;1.60;;
19495;SDS011;9888;48.606;9.630;2023-11-21T02:25:27;5.70;;;1.20;;
19495;SDS011;9888;48.606;9.630;2023-11-21T02:27:58;5.27;;;1.23;;
19495;SDS011;9888;48.606;9.630;2023-11-21T02:30:28;5.33;;;1.40;;
19495;SDS011;9888;48.606;9.630;2023-11-21T02:33:02;7.23;;;1.27;;
19495;SDS011;9888;48.606;9.630;2023-11-21T02:35:43;5.73;;;1.33;;
19495;SDS011;9888;48.606;9.630;2023-11-21T02:38:10;4.87;;;1.17;;
19495;SDS011;9888;48.606;9.630;2023-11-21T02:40:38;5.30;;;1.40;;
19495;SDS011;9888;48.606;9.630;2023-11-21T02:43:15;5.60;;;1.20;;
19495;SDS011;9888;48.606;9.630;2023-11-21T02:45:43;7.57;;;1.30;;
19495;SDS011;9888;48.606;9.630;2023-11-21T02:48:12;4.70;;;1.30;;
19495;SDS011;9888;48.606;9.630;2023-11-21T02:50:39;10.20;;;1.50;;
19495;SDS011;9888;48.606;9.630;2023-11-21T02:53:07;5.07;;;1.20;;
19495;SDS011;9888;48.606;9.630;2023-11-21T02:55:36;5.53;;;1.27;;
19495;SDS011;9888;48.606;9.630;2023-11-21T02:58:03;6.27;;;1.30;;
19495;SDS011;9888;48.606;9.630;2023-11-21T03:00:33;5.70;;;1.27;;
19495;SDS011;9888;48.606;9.630;2023-11-21T03:03:01;4.50;;;1.00;;
19495;SDS011;9888;48.606;9.630;2023-11-21T03:05:31;10.03;;;1.50;;
19495;SDS011;9888;48.606;9.630;2023-11-21T03:08:02;5.57;;;1.30;;
19495;SDS011;9888;48.606;9.630;2023-11-21T03:10:30;5.53;;;1.10;;
19495;SDS011;9888;48.606;9.630;2023-11-21T03:12:58;8.07;;;1.23;;
19495;SDS011;9888;48.606;9.630;2023-11-21T03:15:28;5.53;;;1.17;;
19495;SDS011;9888;48.606;9.630;2023-11-21T03:18:02;9.03;;;1.60;;
19495;SDS011;9888;48.606;9.630;2023-11-21T03:20:30;5.57;;;1.33;;
19495;SDS011;9888;48.606;9.630;2023-11-21T03:22:58;7.60;;;1.20;;
19495;SDS011;9888;48.606;9.630;2023-11-21T03:25:26;5.73;;;1.20;;
19495;SDS011;9888;48.606;9.630;2023-11-21T03:27:53;6.00;;;1.30;;
19495;SDS011;9888;48.606;9.630;2023-11-21T03:30:21;5.60;;;1.20;;
19495;SDS011;9888;48.606;9.630;2023-11-21T03:32:49;5.17;;;1.10;;
19495;SDS011;9888;48.606;9.630;2023-11-21T03:35:17;6.43;;;1.30;;
19495;SDS011;9888;48.606;9.630;2023-11-21T03:37:46;7.50;;;1.10;;
19495;SDS011;9888;48.606;9.630;2023-11-21T03:40:14;5.63;;;1.10;;
19495;SDS011;9888;48.606;9.630;2023-11-21T03:42:42;4.90;;;1.20;;
19495;SDS011;9888;48.606;9.630;2023-11-21T03:45:09;6.47;;;1.10;;
19495;SDS011;9888;48.606;9.630;2023-11-21T03:47:38;5.93;;;1.20;;
19495;SDS011;9888;48.606;9.630;2023-11-21T03:50:06;5.13;;;1.17;;
19495;SDS011;9888;48.606;9.630;2023-11-21T03:52:38;4.80;;;1.10;;
19495;SDS011;9888;48.606;9.630;2023-11-21T03:55:06;5.30;;;1.30;;
19495;SDS011;9888;48.606;9.630;2023-11-21T03:57:34;6.97;;;1.17;;
19495;SDS011;9888;48.606;9.630;2023-11-21T04:00:01;4.50;;;1.00;;
19495;SDS011;9888;48.606;9.630;2023-11-21T04:02:30;4.87;;;1.07;;
19495;SDS011;9888;48.606;9.630;2023-11-21T04:04:58;5.67;;;1.10;;
19495;SDS011;9888;48.606;9.630;2023-11-21T04:10:50;7.17;;;1.20;;
19495;SDS011;9888;48.606;9.630;2023-11-21T04:13:19;5.00;;;1.10;;
19495;SDS011;9888;48.606;9.630;2023-11-21T04:15:47;8.27;;;1.30;;
19495;SDS011;9888;48.606;9.630;2023-11-21T04:18:14;4.73;;;1.00;;
19495;SDS011;9888;48.606;9.630;2023-11-21T04:20:43;6.20;;;1.30;;
19495;SDS011;9888;48.606;9.630;2023-11-21T04:23:10;6.87;;;1.10;;
19495;SDS011;9888;48.606;9.630;2023-11-21T04:25:39;4.80;;;1.00;;
19495;SDS011;9888;48.606;9.630;2023-11-21T04:28:07;5.13;;;1.00;;
19495;SDS011;9888;48.606;9.630;2023-11-21T04:30:38;4.20;;;0.87;;
19495;SDS011;9888;48.606;9.630;2023-11-21T04:33:05;4.43;;;1.03;;
19495;SDS011;9888;48.606;9.630;2023-11-21T04:35:33;5.43;;;1.07;;
19495;SDS011;9888;48.606;9.630;2023-11-21T04:38:01;5.20;;;1.10;;
19495;SDS011;9888;48.606;9.630;2023-11-21T04:40:29;5.50;;;1.10;;
19495;SDS011;9888;48.606;9.630;2023-11-21T04:42:57;7.80;;;1.20;;
19495;SDS011;9888;48.606;9.630;2023-11-21T04:45:27;5.60;;;1.10;;
19495;SDS011;9888;48.606;9.630;2023-11-21T04:47:54;5.10;;;1.00;;
19495;SDS011;9888;48.606;9.630;2023-11-21T04:50:21;4.43;;;1.03;;
19495;SDS011;9888;48.606;9.630;2023-11-21T04:52:49;5.13;;;1.10;;
19495;SDS011;9888;48.606;9.630;2023-11-21T04:55:17;6.70;;;1.30;;
19495;SDS011;9888;48.606;9.630;2023-11-21T04:57:45;4.50;;;0.90;;
19495;SDS011;9888;48.606;9.630;2023-11-21T05:00:14;6.10;;;1.00;;
19495;SDS011;9888;48.606;9.630;2023-11-21T05:02:42;5.07;;;1.00;;
19495;SDS011;9888;48.606;9.630;2023-11-21T05:05:10;4.70;;;0.90;;
19495;SDS011;9888;48.606;9.630;2023-11-21T05:07:39;5.17;;;0.90;;
19495;SDS011;9888;48.606;9.630;2023-11-21T05:10:07;7.47;;;1.07;;
19495;SDS011;9888;48.606;9.630;2023-11-21T05:12:41;6.20;;;1.77;;
19495;SDS011;9888;48.606;9.630;2023-11-21T05:15:09;7.83;;;1.23;;
19495;SDS011;9888;48.606;9.630;2023-11-21T05:17:41;5.10;;;1.00;;
19495;SDS011;9888;48.606;9.630;2023-11-21T05:20:19;4.30;;;0.97;;
19495;SDS011;9888;48.606;9.630;2023-11-21T05:22:48;5.47;;;1.10;;
19495;SDS011;9888;48.606;9.630;2023-11-21T05:25:31;5.87;;;1.10;;
19495;SDS011;9888;48.606;9.630;2023-11-21T05:28:02;5.50;;;1.03;;
19495;SDS011;9888;48.606;9.630;2023-11-21T05:30:29;4.77;;;1.10;;
19495;SDS011;9888;48.606;9.630;2023-11-21T05:32:57;5.90;;;1.10;;
19495;SDS011;9888;48.606;9.630;2023-11-21T05:35:25;7.93;;;1.03;;
19495;SDS011;9888;48.606;9.630;2023-11-21T05:37:53;4.70;;;1.13;;
19495;SDS011;9888;48.606;9.630;2023-11-21T05:40:21;5.97;;;1.23;;
19495;SDS011;9888;48.606;9.630;2023-11-21T05:42:49;5.13;;;1.00;;
19495;SDS011;9888;48.606;9.630;2023-11-21T05:45:18;5.17;;;1.17;;
19495;SDS011;9888;48.606;9.630;2023-11-21T05:47:47;7.67;;;1.20;;
19495;SDS011;9888;48.606;9.630;2023-11-21T05:50:16;7.43;;;1.00;;
19495;SDS011;9888;48.606;9.630;2023-11-21T05:52:45;4.60;;;1.10;;
19495;SDS011;9888;48.606;9.630;2023-11-21T05:55:13;6.63;;;1.00;;
19495;SDS011;9888;48.606;9.630;2023-11-21T05:57:42;27.33;;;12.73;;
19495;SDS011;9888;48.606;9.630;2023-11-21T06:00:12;16.40;;;5.57;;
19495;SDS011;9888;48.606;9.630;2023-11-21T06:02:51;6.60;;;1.73;;
19495;SDS011;9888;48.606;9.630;2023-11-21T06:05:21;7.63;;;2.70;;
19495;SDS011;9888;48.606;9.630;2023-11-21T06:07:50;10.63;;;2.80;;
19495;SDS011;9888;48.606;9.630;2023-11-21T06:10:24;16.60;;;5.50;;
19495;SDS011;9888;48.606;9.630;2023-11-21T06:12:52;13.23;;;2.80;;
19495;SDS011;9888;48.606;9.630;2023-11-21T06:15:19;13.20;;;4.00;;
19495;SDS011;9888;48.606;9.630;2023-11-21T06:17:48;5.43;;;1.10;;
19495;SDS011;9888;48.606;9.630;2023-11-21T06:20:18;21.80;;;7.53;;
19495;SDS011;9888;48.606;9.630;2023-11-21T06:22:47;8.87;;;3.20;;
19495;SDS011;9888;48.606;9.630;2023-11-21T06:25:15;6.60;;;1.90;;
19495;SDS011;9888;48.606;9.630;2023-11-21T06:27:44;8.87;;;2.87;;
19495;SDS011;9888;48.606;9.630;2023-11-21T06:30:12;11.97;;;3.70;;
19495;SDS011;9888;48.606;9.630;2023-11-21T06:32:41;9.87;;;2.00;;
19495;SDS011;9888;48.606;9.630;2023-11-21T06:35:11;9.53;;;2.80;;
19495;SDS011;9888;48.606;9.630;2023-11-21T06:37:39;7.00;;;1.80;;
19495;SDS011;9888;48.606;9.630;2023-11-21T06:40:07;10.40;;;1.60;;
19495;SDS011;9888;48.606;9.630;2023-11-21T06:42:35;7.07;;;2.17;;
19495;SDS011;9888;48.606;9.630;2023-11-21T06:45:04;9.87;;;2.10;;
19495;SDS011;9888;48.606;9.630;2023-11-21T06:47:32;7.90;;;2.00;;
19495;SDS011;9888;48.606;9.630;2023-11-21T06:50:00;7.13;;;1.90;;
19495;SDS011;9888;48.606;9.630;2023-11-21T06:52:27;9.87;;;2.30;;
19495;SDS011;9888;48.606;9.630;2023-11-21T06:54:55;17.93;;;4.13;;
19495;SDS011;9888;48.606;9.630;2023-11-21T06:57:25;7.93;;;2.47;;
19495;SDS011;9888;48.606;9.630;2023-11-21T06:59:52;8.37;;;2.40;;
19495;SDS011;9888;48.606;9.630;2023-11-21T07:02:20;7.73;;;2.10;;
19495;SDS011;9888;48.606;9.630;2023-11-21T07:04:47;14.73;;;2.83;;
19495;SDS011;9888;48.606;9.630;2023-11-21T07:07:15;8.60;;;2.80;;
19495;SDS011;9888;48.606;9.630;2023-11-21T07:09:43;8.03;;;2.70;;
19495;SDS011;9888;48.606;9.630;2023-11-21T07:12:10;11.93;;;3.50;;
19495;SDS011;9888;48.606;9.630;2023-11-21T07:14:39;12.40;;;2.73;;
19495;SDS011;9888;48.606;9.630;2023-11-21T07:17:09;8.60;;;2.87;;
19495;SDS011;9888;48.606;9.630;2023-11-21T07:19:37;13.33;;;3.60;;
19495;SDS011;9888;48.606;9.630;2023-11-21T07:22:05;9.70;;;3.70;;
19495;SDS011;9888;48.606;9.630;2023-11-21T07:24:33;7.80;;;2.50;;
19495;SDS011;9888;48.606;9.630;2023-11-21T07:27:02;23.07;;;8.80;;
19495;SDS011;9888;48.606;9.630;2023-11-21T07:29:30;13.83;;;3.57;;
19495;SDS011;9888;48.606;9.630;2023-11-21T07:31:59;4.53;;;1.10;;
19495;SDS011;9888;48.606;9.630;2023-11-21T07:34:26;7.00;;;2.10;;
19495;SDS011;9888;48.606;9.630;2023-11-21T07:36:53;12.47;;;4.30;;
19495;SDS011;9888;48.606;9.630;2023-11-21T07:39:21;20.47;;;6.73;;
19495;SDS011;9888;48.606;9.630;2023-11-21T07:41:48;13.10;;;2.77;;
19495;SDS011;9888;48.606;9.630;2023-11-21T07:44:16;12.47;;;3.87;;
19495;SDS011;9888;48.606;9.630;2023-11-21T07:46:46;6.20;;;2.10;;
19495;SDS011;9888;48.606;9.630;2023-11-21T07:49:15;26.00;;;11.20;;
19495;SDS011;9888;48.606;9.630;2023-11-21T07:51:45;22.23;;;10.07;;
19495;SDS011;9888;48.606;9.630;2023-11-21T07:54:12;26.93;;;9.83;;
19495;SDS011;9888;48.606;9.630;2023-11-21T07:56:39;31.07;;;11.23;;
19495;SDS011;9888;48.606;9.630;2023-11-21T07:59:08;7.27;;;2.00;;
19495;SDS011;9888;48.606;9.630;2023-11-21T08:01:35;8.80;;;2.50;;
19495;SDS011;9888;48.606;9.630;2023-11-21T08:04:02;42.37;;;14.07;;
19495;SDS011;9888;48.606;9.630;2023-11-21T08:06:32;7.03;;;2.30;;
19495;SDS011;9888;48.606;9.630;2023-11-21T08:09:00;9.67;;;2.27;;
19495;SDS011;9888;48.606;9.630;2023-11-21T08:11:27;13.70;;;3.63;;
19495;SDS011;9888;48.606;9.630;2023-11-21T08:13:56;22.63;;;7.57;;
19495;SDS011;9888;48.606;9.630;2023-11-21T08:16:24;11.50;;;4.20;;
19495;SDS011;9888;48.606;9.630;2023-11-21T08:18:52;4.80;;;1.30;;
19495;SDS011;9888;48.606;9.630;2023-11-21T08:21:20;6.90;;;1.80;;
19495;SDS011;9888;48.606;9.630;2023-11-21T08:23:50;4.87;;;1.10;;
19495;SDS011;9888;48.606;9.630;2023-11-21T08:26:21;5.93;;;1.67;;
19495;SDS011;9888;48.606;9.630;2023-11-21T08:28:48;5.53;;;1.00;;
19495;SDS011;9888;48.606;9.630;2023-11-21T08:31:15;5.23;;;1.17;;
19495;SDS011;9888;48.606;9.630;2023-11-21T08:33:42;4.70;;;1.33;;
19495;SDS011;9888;48.606;9.630;2023-11-21T08:36:09;4.63;;;1.10;;
19495;SDS011;9888;48.606;9.630;2023-11-21T08:38:41;5.80;;;1.10;;
19495;SDS011;9888;48.606;9.630;2023-11-21T08:41:08;10.33;;;1.67;;
19495;SDS011;9888;48.606;9.630;2023-11-21T08:43:36;5.87;;;1.40;;
19495;SDS011;9888;48.606;9.630;2023-11-21T08:46:06;5.17;;;1.30;;
19495;SDS011;9888;48.606;9.630;2023-11-21T08:48:37;9.47;;;3.30;;
19495;SDS011;9888;48.606;9.630;2023-11-21T08:51:04;9.60;;;2.33;;
19495;SDS011;9888;48.606;9.630;2023-11-21T08:53:32;5.13;;;1.50;;
19495;SDS011;9888;48.606;9.630;2023-11-21T08:55:59;6.30;;;1.27;;
19495;SDS011;9888;48.606;9.630;2023-11-21T08:58:26;5.53;;;1.30;;
19495;SDS011;9888;48.606;9.630;2023-11-21T09:00:53;5.13;;;1.37;;
19495;SDS011;9888;48.606;9.630;2023-11-21T09:03:21;4.90;;;1.10;;
19495;SDS011;9888;48.606;9.630;2023-11-21T09:05:50;4.67;;;1.23;;
19495;SDS011;9888;48.606;9.630;2023-11-21T09:08:18;6.87;;;1.20;;
19495;SDS011;9888;48.606;9.630;2023-11-21T09:10:45;5.50;;;1.47;;
19495;SDS011;9888;48.606;9.630;2023-11-21T09:13:13;4.53;;;1.10;;
19495;SDS011;9888;48.606;9.630;2023-11-21T09:15:42;4.70;;;1.10;;
19495;SDS011;9888;48.606;9.630;2023-11-21T09:18:15;4.97;;;1.10;;
19495;SDS011;9888;48.606;9.630;2023-11-21T09:20:47;5.20;;;1.77;;
19495;SDS011;9888;48.606;9.630;2023-11-21T09:23:14;8.50;;;1.70;;
19495;SDS011;9888;48.606;9.630;2023-11-21T09:25:42;4.33;;;1.00;;
19495;SDS011;9888;48.606;9.630;2023-11-21T09:28:13;5.40;;;1.30;;
19495;SDS011;9888;48.606;9.630;2023-11-21T09:30:41;5.30;;;1.13;;
19495;SDS011;9888;48.606;9.630;2023-11-21T09:33:08;5.47;;;1.40;;
19495;SDS011;9888;48.606;9.630;2023-11-21T09:35:39;4.80;;;1.20;;
19495;SDS011;9888;48.606;9.630;2023-11-21T09:38:06;4.70;;;1.30;;
19495;SDS011;9888;48.606;9.630;2023-11-21T09:40:36;9.13;;;1.33;;
19495;SDS011;9888;48.606;9.630;2023-11-21T09:43:06;4.47;;;1.20;;
19495;SDS011;9888;48.606;9.630;2023-11-21T09:45:46;5.17;;;1.03;;
19495;SDS011;9888;48.606;9.630;2023-11-21T09:48:20;4.30;;;0.80;;
19495;SDS011;9888;48.606;9.630;2023-11-21T09:50:47;4.60;;;0.90;;
19495;SDS011;9888;48.606;9.630;2023-11-21T09:53:21;4.33;;;1.00;;
19495;SDS011;9888;48.606;9.630;2023-11-21T09:55:51;5.47;;;0.90;;
19495;SDS011;9888;48.606;9.630;2023-11-21T09:58:19;5.93;;;0.97;;
19495;SDS011;9888;48.606;9.630;2023-11-21T10:00:52;4.77;;;1.03;;
19495;SDS011;9888;48.606;9.630;2023-11-21T10:03:23;4.40;;;1.00;;
19495;SDS011;9888;48.606;9.630;2023-11-21T10:05:51;5.00;;;0.97;;
19495;SDS011;9888;48.606;9.630;2023-11-21T10:08:26;5.27;;;1.00;;
19495;SDS011;9888;48.606;9.630;2023-11-21T10:10:54;5.00;;;0.90;;
19495;SDS011;9888;48.606;9.630;2023-11-21T10:13:24;4.60;;;0.90;;
19495;SDS011;9888;48.606;9.630;2023-11-21T10:15:52;6.20;;;1.00;;
19495;SDS011;9888;48.606;9.630;2023-11-21T10:18:19;7.00;;;1.20;;
19495;SDS011;9888;48.606;9.630;2023-11-21T10:20:48;5.10;;;1.10;;
19495;SDS011;9888;48.606;9.630;2023-11-21T10:23:19;4.40;;;1.10;;
19495;SDS011;9888;48.606;9.630;2023-11-21T10:25:47;9.17;;;2.67;;
19495;SDS011;9888;48.606;9.630;2023-11-21T10:28:16;4.57;;;0.90;;
19495;SDS011;9888;48.606;9.630;2023-11-21T10:30:48;4.23;;;0.90;;
19495;SDS011;9888;48.606;9.630;2023-11-21T10:33:16;4.33;;;1.00;;
19495;SDS011;9888;48.606;9.630;2023-11-21T10:35:53;4.40;;;1.10;;
19495;SDS011;9888;48.606;9.630;2023-11-21T10:38:21;6.83;;;1.23;;
19495;SDS011;9888;48.606;9.630;2023-11-21T10:40:49;5.60;;;1.17;;
19495;SDS011;9888;48.606;9.630;2023-11-21T10:43:17;5.50;;;1.60;;
19495;SDS011;9888;48.606;9.630;2023-11-21T10:45:45;6.53;;;2.20;;
19495;SDS011;9888;48.606;9.630;2023-11-21T10:48:15;5.60;;;2.00;;
19495;SDS011;9888;48.606;9.630;2023-11-21T10:50:43;5.13;;;1.60;;
19495;SDS011;9888;48.606;9.630;2023-11-21T10:53:12;5.20;;;1.60;;
19495;SDS011;9888;48.606;9.630;2023-11-21T10:55:40;5.10;;;1.33;;
19495;SDS011;9888;48.606;9.630;2023-11-21T10:58:09;4.67;;;1.30;;
19495;SDS011;9888;48.606;9.630;2023-11-21T11:00:40;5.30;;;1.60;;
19495;SDS011;9888;48.606;9.630;2023-11-21T11:03:08;5.20;;;1.37;;
19495;SDS011;9888;48.606;9.630;2023-11-21T11:05:41;6.07;;;1.60;;
19495;SDS011;9888;48.606;9.630;2023-11-21T11:08:16;5.77;;;1.73;;
19495;SDS011;9888;48.606;9.630;2023-11-21T11:10:45;4.93;;;1.43;;
19495;SDS011;9888;48.606;9.630;2023-11-21T11:13:13;4.80;;;1.50;;
19495;SDS011;9888;48.606;9.630;2023-11-21T11:15:41;5.40;;;1.70;;
19495;SDS011;9888;48.606;9.630;2023-11-21T11:18:09;5.00;;;1.50;;
19495;SDS011;9888;48.606;9.630;2023-11-21T11:20:38;4.50;;;1.30;;
19495;SDS011;9888;48.606;9.630;2023-11-21T11:25:59;5.20;;;1.50;;
19495;SDS011;9888;48.606;9.630;2023-11-21T11:28:44;11.03;;;6.40;;
19495;SDS011;9888;48.606;9.630;2023-11-21T11:34:14;4.67;;;1.30;;
19495;SDS011;9888;48.606;9.630;2023-11-21T11:37:02;5.90;;;1.93;;
19495;SDS011;9888;48.606;9.630;2023-11-21T11:42:14;6.23;;;1.47;;
19495;SDS011;9888;48.606;9.630;2023-11-21T11:47:21;5.90;;;1.60;;
19495;SDS011;9888;48.606;9.630;2023-11-21T11:50:07;7.60;;;1.57;;
19495;SDS011;9888;48.606;9.630;2023-11-21T11:52:50;5.60;;;1.50;;
19495;SDS011;9888;48.606;9.630;2023-11-21T11:55:19;6.93;;;1.60;;
19495;SDS011;9888;48.606;9.630;2023-11-21T11:57:51;5.43;;;2.00;;
19495;SDS011;9888;48.606;9.630;2023-11-21T12:00:21;6.37;;;1.73;;
19495;SDS011;9888;48.606;9.630;2023-11-21T12:03:03;10.13;;;1.67;;
19495;SDS011;9888;48.606;9.630;2023-11-21T12:05:31;5.70;;;2.00;;
19495;SDS011;9888;48.606;9.630;2023-11-21T12:08:11;6.43;;;1.93;;
19495;SDS011;9888;48.606;9.630;2023-11-21T12:10:39;5.10;;;1.70;;
19495;SDS011;9888;48.606;9.630;2023-11-21T12:13:07;7.30;;;1.67;;
19495;SDS011;9888;48.606;9.630;2023-11-21T12:15:37;6.07;;;1.87;;
19495;SDS011;9888;48.606;9.630;2023-11-21T12:18:08;5.00;;;1.47;;
19495;SDS011;9888;48.606;9.630;2023-11-21T12:20:39;5.70;;;1.60;;
19495;SDS011;9888;48.606;9.630;2023-11-21T12:23:08;5.07;;;1.60;;
19495;SDS011;9888;48.606;9.630;2023-11-21T12:25:37;5.60;;;1.80;;
19495;SDS011;9888;48.606;9.630;2023-11-21T12:28:10;5.23;;;1.77;;
19495;SDS011;9888;48.606;9.630;2023-11-21T12:30:38;5.03;;;1.70;;
19495;SDS011;9888;48.606;9.630;2023-11-21T12:33:06;5.80;;;1.80;;
19495;SDS011;9888;48.606;9.630;2023-11-21T12:35:36;6.07;;;1.70;;
19495;SDS011;9888;48.606;9.630;2023-11-21T12:38:04;5.53;;;1.90;;
19495;SDS011;9888;48.606;9.630;2023-11-21T12:40:34;5.27;;;1.73;;
19495;SDS011;9888;48.606;9.630;2023-11-21T12:43:01;10.23;;;1.80;;
19495;SDS011;9888;48.606;9.630;2023-11-21T12:45:30;6.13;;;1.60;;
19495;SDS011;9888;48.606;9.630;2023-11-21T12:47:58;5.33;;;1.73;;
19495;SDS011;9888;48.606;9.630;2023-11-21T12:50:34;7.03;;;1.53;;
19495;SDS011;9888;48.606;9.630;2023-11-21T12:53:03;5.97;;;1.70;;
19495;SDS011;9888;48.606;9.630;2023-11-21T12:55:35;5.03;;;1.70;;
19495;SDS011;9888;48.606;9.630;2023-11-21T12:58:03;5.27;;;1.83;;
19495;SDS011;9888;48.606;9.630;2023-11-21T13:00:37;5.73;;;1.80;;
19495;SDS011;9888;48.606;9.630;2023-11-21T13:03:06;6.00;;;1.60;;
19495;SDS011;9888;48.606;9.630;2023-11-21T13:05:36;24.70;;;15.20;;
19495;SDS011;9888;48.606;9.630;2023-11-21T13:08:16;5.47;;;2.03;;
19495;SDS011;9888;48.606;9.630;2023-11-21T13:10:54;6.43;;;2.00;;
19495;SDS011;9888;48.606;9.630;2023-11-21T13:13:23;6.80;;;1.90;;
19495;SDS011;9888;48.606;9.630;2023-11-21T13:15:56;12.00;;;3.60;;
19495;SDS011;9888;48.606;9.630;2023-11-21T13:18:31;10.20;;;3.73;;
19495;SDS011;9888;48.606;9.630;2023-11-21T13:20:59;11.93;;;4.60;;
19495;SDS011;9888;48.606;9.630;2023-11-21T13:23:36;11.10;;;4.13;;
19495;SDS011;9888;48.606;9.630;2023-11-21T13:26:05;6.77;;;1.87;;
19495;SDS011;9888;48.606;9.630;2023-11-21T13:28:32;5.30;;;1.57;;
19495;SDS011;9888;48.606;9.630;2023-11-21T13:31:01;5.73;;;1.80;;
19495;SDS011;9888;48.606;9.630;2023-11-21T13:33:46;9.80;;;2.17;;
19495;SDS011;9888;48.606;9.630;2023-11-21T13:36:22;10.50;;;2.37;;
19495;SDS011;9888;48.606;9.630;2023-11-21T13:38:49;8.83;;;4.50;;
19495;SDS011;9888;48.606;9.630;2023-11-21T13:44:30;24.50;;;14.30;;
19495;SDS011;9888;48.606;9.630;2023-11-21T13:47:04;10.60;;;3.77;;
19495;SDS011;9888;48.606;9.630;2023-11-21T13:49:34;5.67;;;1.93;;
19495;SDS011;9888;48.606;9.630;2023-11-21T13:52:06;5.20;;;1.60;;
19495;SDS011;9888;48.606;9.630;2023-11-21T13:54:36;9.40;;;2.10;;
19495;SDS011;9888;48.606;9.630;2023-11-21T13:57:03;7.90;;;2.60;;
19495;SDS011;9888;48.606;9.630;2023-11-21T13:59:31;6.20;;;2.30;;
19495;SDS011;9888;48.606;9.630;2023-11-21T14:02:00;6.73;;;2.40;;
19495;SDS011;9888;48.606;9.630;2023-11-21T14:04:42;6.40;;;2.47;;
19495;SDS011;9888;48.606;9.630;2023-11-21T14:07:24;5.57;;;2.20;;
19495;SDS011;9888;48.606;9.630;2023-11-21T14:10:03;6.30;;;2.30;;
19495;SDS011;9888;48.606;9.630;2023-11-21T14:12:33;6.10;;;2.40;;
19495;SDS011;9888;48.606;9.630;2023-11-21T14:15:02;7.53;;;3.17;;
19495;SDS011;9888;48.606;9.630;2023-11-21T14:17:31;161.93;;;83.33;;
19495;SDS011;9888;48.606;9.630;2023-11-21T14:19:59;150.37;;;72.00;;
19495;SDS011;9888;48.606;9.630;2023-11-21T14:22:31;51.30;;;26.40;;
19495;SDS011;9888;48.606;9.630;2023-11-21T14:25:04;26.33;;;11.70;;
19495;SDS011;9888;48.606;9.630;2023-11-21T14:27:32;11.27;;;4.70;;
19495;SDS011;9888;48.606;9.630;2023-11-21T14:29:59;10.50;;;4.30;;
19495;SDS011;9888;48.606;9.630;2023-11-21T14:32:31;7.47;;;3.10;;
19495;SDS011;9888;48.606;9.630;2023-11-21T14:34:58;6.10;;;2.70;;
19495;SDS011;9888;48.606;9.630;2023-11-21T14:37:27;7.50;;;3.00;;
19495;SDS011;9888;48.606;9.630;2023-11-21T14:39:54;8.70;;;2.70;;
19495;SDS011;9888;48.606;9.630;2023-11-21T14:42:22;7.07;;;3.10;;
19495;SDS011;9888;48.606;9.630;2023-11-21T14:44:52;5.77;;;2.20;;
19495;SDS011;9888;48.606;9.630;2023-11-21T14:47:22;6.50;;;2.40;;
19495;SDS011;9888;48.606;9.630;2023-11-21T14:49:53;6.03;;;2.23;;
19495;SDS011;9888;48.606;9.630;2023-11-21T14:52:22;7.13;;;2.40;;
19495;SDS011;9888;48.606;9.630;2023-11-21T14:55:12;6.37;;;1.90;;
19495;SDS011;9888;48.606;9.630;2023-11-21T14:57:47;6.90;;;2.20;;
19495;SDS011;9888;48.606;9.630;2023-11-21T15:00:20;8.40;;;2.63;;
19495;SDS011;9888;48.606;9.630;2023-11-21T15:03:06;8.43;;;3.00;;
19495;SDS011;9888;48.606;9.630;2023-11-21T15:05:34;6.30;;;2.80;;
19495;SDS011;9888;48.606;9.630;2023-11-21T15:08:03;7.50;;;2.90;;
19495;SDS011;9888;48.606;9.630;2023-11-21T15:10:46;6.87;;;2.83;;
19495;SDS011;9888;48.606;9.630;2023-11-21T15:13:19;5.87;;;2.10;;
19495;SDS011;9888;48.606;9.630;2023-11-21T15:15:49;6.50;;;3.10;;
19495;SDS011;9888;48.606;9.630;2023-11-21T15:18:17;10.43;;;2.50;;
19495;SDS011;9888;48.606;9.630;2023-11-21T15:20:44;6.00;;;2.40;;
19495;SDS011;9888;48.606;9.630;2023-11-21T15:23:11;6.10;;;2.10;;
19495;SDS011;9888;48.606;9.630;2023-11-21T15:25:43;5.27;;;1.70;;
19495;SDS011;9888;48.606;9.630;2023-11-21T15:28:11;4.10;;;0.83;;
19495;SDS011;9888;48.606;9.630;2023-11-21T15:30:38;6.07;;;1.47;;
19495;SDS011;9888;48.606;9.630;2023-11-21T15:33:05;7.77;;;1.60;;